sensor_id;sensor_type;location;lat;lon;timestamp;P1;durP1;ratioP1;P2;durP2;ratioP2
68178;SDS011;54998;42.656;23.382;2023-04-24T00:01:26;8.73;;;4.97;;
68178;SDS011;54998;42.656;23.382;2023-04-24T00:03:54;9.38;;;4.60;;
68178;SDS011;54998;42.656;23.382;2023-04-24T00:06:19;9.40;;;5.00;;
68178;SDS011;54998;42.656;23.382;2023-04-24T00:08:45;5.85;;;3.60;;
68178;SDS011;54998;42.656;23.382;2023-04-24T00:11:12;5.82;;;3.70;;
68178;SDS011;54998;42.656;23.382;2023-04-24T00:13:37;7.82;;;3.78;;
68178;SDS011;54998;42.656;23.382;2023-04-24T00:16:03;8.05;;;4.25;;
68178;SDS011;54998;42.656;23.382;2023-04-24T00:18:28;9.15;;;4.35;;
68178;SDS011;54998;42.656;23.382;2023-04-24T00:20:54;7.53;;;4.65;;
68178;SDS011;54998;42.656;23.382;2023-04-24T00:23:19;6.47;;;3.78;;
68178;SDS011;54998;42.656;23.382;2023-04-24T00:25:45;6.88;;;4.43;;
68178;SDS011;54998;42.656;23.382;2023-04-24T00:28:10;9.45;;;4.95;;
68178;SDS011;54998;42.656;23.382;2023-04-24T00:30:36;8.73;;;5.03;;
68178;SDS011;54998;42.656;23.382;2023-04-24T00:33:01;6.97;;;4.43;;
68178;SDS011;54998;42.656;23.382;2023-04-24T00:35:26;7.53;;;4.55;;
68178;SDS011;54998;42.656;23.382;2023-04-24T00:37:52;8.75;;;4.82;;
68178;SDS011;54998;42.656;23.382;2023-04-24T00:40:17;6.88;;;4.93;;
68178;SDS011;54998;42.656;23.382;2023-04-24T00:42:43;6.18;;;4.13;;
68178;SDS011;54998;42.656;23.382;2023-04-24T00:45:09;8.05;;;4.43;;
68178;SDS011;54998;42.656;23.382;2023-04-24T00:47:37;7.75;;;4.32;;
68178;SDS011;54998;42.656;23.382;2023-04-24T00:50:04;7.32;;;4.63;;
68178;SDS011;54998;42.656;23.382;2023-04-24T00:52:30;8.50;;;5.10;;
68178;SDS011;54998;42.656;23.382;2023-04-24T00:54:57;7.28;;;4.45;;
68178;SDS011;54998;42.656;23.382;2023-04-24T00:57:23;7.15;;;5.40;;
68178;SDS011;54998;42.656;23.382;2023-04-24T00:59:50;9.45;;;6.05;;
68178;SDS011;54998;42.656;23.382;2023-04-24T01:02:16;10.02;;;5.32;;
68178;SDS011;54998;42.656;23.382;2023-04-24T01:07:10;10.80;;;5.97;;
68178;SDS011;54998;42.656;23.382;2023-04-24T01:09:40;10.07;;;6.22;;
68178;SDS011;54998;42.656;23.382;2023-04-24T01:12:06;11.27;;;6.13;;
68178;SDS011;54998;42.656;23.382;2023-04-24T01:14:32;9.75;;;5.40;;
68178;SDS011;54998;42.656;23.382;2023-04-24T01:16:58;11.20;;;5.93;;
68178;SDS011;54998;42.656;23.382;2023-04-24T01:19:24;10.52;;;6.32;;
68178;SDS011;54998;42.656;23.382;2023-04-24T01:21:50;8.90;;;4.60;;
68178;SDS011;54998;42.656;23.382;2023-04-24T01:24:18;8.52;;;5.05;;
68178;SDS011;54998;42.656;23.382;2023-04-24T01:26:44;9.38;;;5.03;;
68178;SDS011;54998;42.656;23.382;2023-04-24T01:29:10;10.15;;;5.57;;
68178;SDS011;54998;42.656;23.382;2023-04-24T01:31:36;8.82;;;5.18;;
68178;SDS011;54998;42.656;23.382;2023-04-24T01:34:02;8.98;;;5.60;;
68178;SDS011;54998;42.656;23.382;2023-04-24T01:36:28;9.10;;;5.80;;
68178;SDS011;54998;42.656;23.382;2023-04-24T01:38:56;10.02;;;5.47;;
68178;SDS011;54998;42.656;23.382;2023-04-24T01:41:22;10.25;;;5.75;;
68178;SDS011;54998;42.656;23.382;2023-04-24T01:43:48;8.98;;;5.07;;
68178;SDS011;54998;42.656;23.382;2023-04-24T01:46:14;10.88;;;5.45;;
68178;SDS011;54998;42.656;23.382;2023-04-24T01:48:40;9.15;;;5.40;;
68178;SDS011;54998;42.656;23.382;2023-04-24T01:51:06;10.88;;;5.82;;
68178;SDS011;54998;42.656;23.382;2023-04-24T01:53:32;9.82;;;5.55;;
68178;SDS011;54998;42.656;23.382;2023-04-24T01:55:57;9.52;;;6.55;;
68178;SDS011;54998;42.656;23.382;2023-04-24T01:58:23;9.82;;;5.50;;
68178;SDS011;54998;42.656;23.382;2023-04-24T02:00:49;9.00;;;5.55;;
68178;SDS011;54998;42.656;23.382;2023-04-24T02:03:14;10.85;;;5.38;;
68178;SDS011;54998;42.656;23.382;2023-04-24T02:05:40;7.97;;;5.57;;
68178;SDS011;54998;42.656;23.382;2023-04-24T02:08:05;14.82;;;6.45;;
68178;SDS011;54998;42.656;23.382;2023-04-24T02:10:30;11.88;;;5.70;;
68178;SDS011;54998;42.656;23.382;2023-04-24T02:12:56;8.85;;;5.63;;
68178;SDS011;54998;42.656;23.382;2023-04-24T02:15:21;9.93;;;5.80;;
68178;SDS011;54998;42.656;23.382;2023-04-24T02:17:47;9.50;;;5.72;;
68178;SDS011;54998;42.656;23.382;2023-04-24T02:20:12;12.15;;;6.38;;
68178;SDS011;54998;42.656;23.382;2023-04-24T02:22:38;9.45;;;6.18;;
68178;SDS011;54998;42.656;23.382;2023-04-24T02:25:03;11.48;;;6.13;;
68178;SDS011;54998;42.656;23.382;2023-04-24T02:27:30;9.45;;;6.78;;
68178;SDS011;54998;42.656;23.382;2023-04-24T02:29:55;13.00;;;6.28;;
68178;SDS011;54998;42.656;23.382;2023-04-24T02:32:20;11.55;;;6.60;;
68178;SDS011;54998;42.656;23.382;2023-04-24T02:34:46;10.63;;;5.60;;
68178;SDS011;54998;42.656;23.382;2023-04-24T02:37:11;12.88;;;7.10;;
68178;SDS011;54998;42.656;23.382;2023-04-24T02:39:37;12.75;;;7.28;;
68178;SDS011;54998;42.656;23.382;2023-04-24T02:42:02;12.02;;;6.18;;
68178;SDS011;54998;42.656;23.382;2023-04-24T02:44:28;13.13;;;7.90;;
68178;SDS011;54998;42.656;23.382;2023-04-24T02:46:53;13.00;;;7.88;;
68178;SDS011;54998;42.656;23.382;2023-04-24T02:49:19;16.63;;;8.15;;
68178;SDS011;54998;42.656;23.382;2023-04-24T02:51:44;12.30;;;6.65;;
68178;SDS011;54998;42.656;23.382;2023-04-24T02:54:09;12.10;;;6.57;;
68178;SDS011;54998;42.656;23.382;2023-04-24T02:56:35;11.63;;;6.68;;
68178;SDS011;54998;42.656;23.382;2023-04-24T02:59:01;12.50;;;6.97;;
68178;SDS011;54998;42.656;23.382;2023-04-24T03:01:27;13.60;;;6.93;;
68178;SDS011;54998;42.656;23.382;2023-04-24T03:03:52;12.18;;;7.00;;
68178;SDS011;54998;42.656;23.382;2023-04-24T03:06:17;18.88;;;8.70;;
68178;SDS011;54998;42.656;23.382;2023-04-24T03:08:43;16.70;;;7.72;;
68178;SDS011;54998;42.656;23.382;2023-04-24T03:11:08;11.90;;;7.10;;
68178;SDS011;54998;42.656;23.382;2023-04-24T03:13:34;10.73;;;7.28;;
68178;SDS011;54998;42.656;23.382;2023-04-24T03:15:59;13.35;;;7.82;;
68178;SDS011;54998;42.656;23.382;2023-04-24T03:18:25;12.82;;;7.72;;
68178;SDS011;54998;42.656;23.382;2023-04-24T03:20:50;11.52;;;7.38;;
68178;SDS011;54998;42.656;23.382;2023-04-24T03:23:16;17.52;;;8.40;;
68178;SDS011;54998;42.656;23.382;2023-04-24T03:25:41;13.90;;;8.30;;
68178;SDS011;54998;42.656;23.382;2023-04-24T03:28:07;14.57;;;7.97;;
68178;SDS011;54998;42.656;23.382;2023-04-24T03:30:33;11.52;;;7.50;;
68178;SDS011;54998;42.656;23.382;2023-04-24T03:32:59;12.30;;;6.95;;
68178;SDS011;54998;42.656;23.382;2023-04-24T03:35:24;12.75;;;6.70;;
68178;SDS011;54998;42.656;23.382;2023-04-24T03:37:50;10.98;;;5.82;;
68178;SDS011;54998;42.656;23.382;2023-04-24T03:40:15;13.02;;;7.50;;
68178;SDS011;54998;42.656;23.382;2023-04-24T03:42:40;11.90;;;6.60;;
68178;SDS011;54998;42.656;23.382;2023-04-24T03:45:06;15.45;;;7.38;;
68178;SDS011;54998;42.656;23.382;2023-04-24T03:47:32;15.23;;;6.75;;
68178;SDS011;54998;42.656;23.382;2023-04-24T03:49:57;11.98;;;6.75;;
68178;SDS011;54998;42.656;23.382;2023-04-24T03:52:23;10.48;;;6.32;;
68178;SDS011;54998;42.656;23.382;2023-04-24T03:54:48;15.45;;;7.68;;
68178;SDS011;54998;42.656;23.382;2023-04-24T03:57:14;14.93;;;7.00;;
68178;SDS011;54998;42.656;23.382;2023-04-24T03:59:39;13.93;;;7.32;;
68178;SDS011;54998;42.656;23.382;2023-04-24T04:02:05;17.05;;;7.00;;
68178;SDS011;54998;42.656;23.382;2023-04-24T04:04:30;14.63;;;7.55;;
68178;SDS011;54998;42.656;23.382;2023-04-24T04:06:56;12.27;;;6.82;;
68178;SDS011;54998;42.656;23.382;2023-04-24T04:09:21;13.02;;;6.72;;
68178;SDS011;54998;42.656;23.382;2023-04-24T04:11:46;11.98;;;6.28;;
68178;SDS011;54998;42.656;23.382;2023-04-24T04:14:12;11.20;;;6.15;;
68178;SDS011;54998;42.656;23.382;2023-04-24T04:16:37;7.95;;;5.93;;
68178;SDS011;54998;42.656;23.382;2023-04-24T04:19:03;11.75;;;6.10;;
68178;SDS011;54998;42.656;23.382;2023-04-24T04:21:29;9.57;;;6.30;;
68178;SDS011;54998;42.656;23.382;2023-04-24T04:26:21;8.90;;;5.25;;
68178;SDS011;54998;42.656;23.382;2023-04-24T04:28:50;10.25;;;5.45;;
68178;SDS011;54998;42.656;23.382;2023-04-24T04:31:16;9.05;;;5.72;;
68178;SDS011;54998;42.656;23.382;2023-04-24T04:33:42;12.30;;;5.40;;
68178;SDS011;54998;42.656;23.382;2023-04-24T04:36:07;13.23;;;7.40;;
68178;SDS011;54998;42.656;23.382;2023-04-24T04:38:33;10.30;;;6.70;;
68178;SDS011;54998;42.656;23.382;2023-04-24T04:41:00;10.25;;;5.82;;
68178;SDS011;54998;42.656;23.382;2023-04-24T04:43:25;11.98;;;6.20;;
68178;SDS011;54998;42.656;23.382;2023-04-24T04:45:51;12.80;;;6.72;;
68178;SDS011;54998;42.656;23.382;2023-04-24T04:48:17;16.15;;;7.13;;
68178;SDS011;54998;42.656;23.382;2023-04-24T04:50:43;11.38;;;7.60;;
68178;SDS011;54998;42.656;23.382;2023-04-24T04:53:09;15.60;;;6.07;;
68178;SDS011;54998;42.656;23.382;2023-04-24T04:55:37;10.50;;;6.82;;
68178;SDS011;54998;42.656;23.382;2023-04-24T04:58:03;10.77;;;5.85;;
68178;SDS011;54998;42.656;23.382;2023-04-24T05:00:28;10.63;;;5.75;;
68178;SDS011;54998;42.656;23.382;2023-04-24T05:02:59;13.00;;;5.75;;
68178;SDS011;54998;42.656;23.382;2023-04-24T05:05:25;11.43;;;6.20;;
68178;SDS011;54998;42.656;23.382;2023-04-24T05:07:50;8.70;;;5.57;;
68178;SDS011;54998;42.656;23.382;2023-04-24T05:10:16;7.90;;;5.15;;
68178;SDS011;54998;42.656;23.382;2023-04-24T05:12:41;12.07;;;5.65;;
68178;SDS011;54998;42.656;23.382;2023-04-24T05:15:06;10.02;;;5.47;;
68178;SDS011;54998;42.656;23.382;2023-04-24T05:17:32;11.82;;;6.03;;
68178;SDS011;54998;42.656;23.382;2023-04-24T05:19:58;10.88;;;5.70;;
68178;SDS011;54998;42.656;23.382;2023-04-24T05:22:23;10.40;;;6.40;;
68178;SDS011;54998;42.656;23.382;2023-04-24T05:24:48;15.25;;;5.30;;
68178;SDS011;54998;42.656;23.382;2023-04-24T05:27:14;9.02;;;5.43;;
68178;SDS011;54998;42.656;23.382;2023-04-24T05:29:40;10.75;;;5.55;;
68178;SDS011;54998;42.656;23.382;2023-04-24T05:32:05;7.38;;;5.25;;
68178;SDS011;54998;42.656;23.382;2023-04-24T05:34:31;10.88;;;6.45;;
68178;SDS011;54998;42.656;23.382;2023-04-24T05:36:57;10.73;;;5.75;;
68178;SDS011;54998;42.656;23.382;2023-04-24T05:39:22;12.48;;;5.70;;
68178;SDS011;54998;42.656;23.382;2023-04-24T05:41:49;7.93;;;5.32;;
68178;SDS011;54998;42.656;23.382;2023-04-24T05:44:15;9.57;;;5.57;;
68178;SDS011;54998;42.656;23.382;2023-04-24T05:46:41;10.35;;;6.75;;
68178;SDS011;54998;42.656;23.382;2023-04-24T05:49:06;12.65;;;6.47;;
68178;SDS011;54998;42.656;23.382;2023-04-24T05:51:35;10.02;;;5.93;;
68178;SDS011;54998;42.656;23.382;2023-04-24T05:54:00;11.32;;;6.00;;
68178;SDS011;54998;42.656;23.382;2023-04-24T05:56:28;10.80;;;6.40;;
68178;SDS011;54998;42.656;23.382;2023-04-24T05:58:54;8.23;;;5.20;;
68178;SDS011;54998;42.656;23.382;2023-04-24T06:01:19;9.15;;;5.70;;
68178;SDS011;54998;42.656;23.382;2023-04-24T06:03:45;10.10;;;5.18;;
68178;SDS011;54998;42.656;23.382;2023-04-24T06:06:11;9.63;;;6.45;;
68178;SDS011;54998;42.656;23.382;2023-04-24T06:08:37;10.88;;;7.20;;
68178;SDS011;54998;42.656;23.382;2023-04-24T06:11:02;7.88;;;6.20;;
68178;SDS011;54998;42.656;23.382;2023-04-24T06:13:28;10.73;;;6.75;;
68178;SDS011;54998;42.656;23.382;2023-04-24T06:15:53;10.38;;;7.18;;
68178;SDS011;54998;42.656;23.382;2023-04-24T06:18:30;11.98;;;7.22;;
68178;SDS011;54998;42.656;23.382;2023-04-24T06:21:11;11.45;;;6.78;;
68178;SDS011;54998;42.656;23.382;2023-04-24T06:23:39;11.57;;;6.88;;
68178;SDS011;54998;42.656;23.382;2023-04-24T06:26:08;9.63;;;7.63;;
68178;SDS011;54998;42.656;23.382;2023-04-24T06:28:34;13.32;;;7.85;;
68178;SDS011;54998;42.656;23.382;2023-04-24T06:30:59;9.52;;;7.15;;
68178;SDS011;54998;42.656;23.382;2023-04-24T06:33:25;12.10;;;6.80;;
68178;SDS011;54998;42.656;23.382;2023-04-24T06:35:50;12.35;;;7.97;;
68178;SDS011;54998;42.656;23.382;2023-04-24T06:38:16;8.38;;;6.57;;
68178;SDS011;54998;42.656;23.382;2023-04-24T06:40:41;12.90;;;8.35;;
68178;SDS011;54998;42.656;23.382;2023-04-24T06:43:07;11.60;;;8.00;;
68178;SDS011;54998;42.656;23.382;2023-04-24T06:45:32;11.82;;;7.85;;
68178;SDS011;54998;42.656;23.382;2023-04-24T06:48:04;10.40;;;7.13;;
68178;SDS011;54998;42.656;23.382;2023-04-24T06:50:29;11.55;;;7.18;;
68178;SDS011;54998;42.656;23.382;2023-04-24T06:52:57;11.88;;;8.05;;
68178;SDS011;54998;42.656;23.382;2023-04-24T06:55:22;13.48;;;7.57;;
68178;SDS011;54998;42.656;23.382;2023-04-24T06:57:48;11.10;;;8.27;;
68178;SDS011;54998;42.656;23.382;2023-04-24T07:00:13;8.45;;;6.75;;
68178;SDS011;54998;42.656;23.382;2023-04-24T07:02:39;11.38;;;8.18;;
68178;SDS011;54998;42.656;23.382;2023-04-24T07:05:20;13.40;;;8.52;;
68178;SDS011;54998;42.656;23.382;2023-04-24T07:07:48;9.63;;;7.38;;
68178;SDS011;54998;42.656;23.382;2023-04-24T07:10:16;15.55;;;7.82;;
68178;SDS011;54998;42.656;23.382;2023-04-24T07:12:42;11.43;;;8.13;;
68178;SDS011;54998;42.656;23.382;2023-04-24T07:15:07;11.43;;;8.48;;
68178;SDS011;54998;42.656;23.382;2023-04-24T07:20:03;12.50;;;7.32;;
68178;SDS011;54998;42.656;23.382;2023-04-24T07:22:30;10.75;;;7.35;;
68178;SDS011;54998;42.656;23.382;2023-04-24T07:24:59;15.27;;;8.18;;
68178;SDS011;54998;42.656;23.382;2023-04-24T07:27:24;11.05;;;7.43;;
68178;SDS011;54998;42.656;23.382;2023-04-24T07:30:02;15.15;;;9.30;;
68178;SDS011;54998;42.656;23.382;2023-04-24T07:32:32;12.07;;;7.63;;
68178;SDS011;54998;42.656;23.382;2023-04-24T07:35:10;11.80;;;8.27;;
68178;SDS011;54998;42.656;23.382;2023-04-24T07:37:36;10.02;;;7.32;;
68178;SDS011;54998;42.656;23.382;2023-04-24T07:40:11;8.23;;;6.60;;
68178;SDS011;54998;42.656;23.382;2023-04-24T07:42:37;10.00;;;6.13;;
68178;SDS011;54998;42.656;23.382;2023-04-24T07:45:09;11.65;;;6.55;;
68178;SDS011;54998;42.656;23.382;2023-04-24T07:47:43;9.73;;;5.93;;
68178;SDS011;54998;42.656;23.382;2023-04-24T07:50:10;8.65;;;6.97;;
68178;SDS011;54998;42.656;23.382;2023-04-24T07:52:39;8.73;;;6.82;;
68178;SDS011;54998;42.656;23.382;2023-04-24T07:55:12;8.02;;;5.05;;
68178;SDS011;54998;42.656;23.382;2023-04-24T07:57:38;13.48;;;6.75;;
68178;SDS011;54998;42.656;23.382;2023-04-24T08:00:04;10.43;;;6.35;;
68178;SDS011;54998;42.656;23.382;2023-04-24T08:02:31;10.23;;;6.15;;
68178;SDS011;54998;42.656;23.382;2023-04-24T08:04:59;10.18;;;7.18;;
68178;SDS011;54998;42.656;23.382;2023-04-24T08:07:27;11.18;;;6.75;;
68178;SDS011;54998;42.656;23.382;2023-04-24T08:10:25;17.00;;;7.95;;
68178;SDS011;54998;42.656;23.382;2023-04-24T08:15:24;10.02;;;6.20;;
68178;SDS011;54998;42.656;23.382;2023-04-24T08:17:51;10.73;;;6.80;;
68178;SDS011;54998;42.656;23.382;2023-04-24T08:20:23;9.05;;;6.90;;
68178;SDS011;54998;42.656;23.382;2023-04-24T08:22:51;7.30;;;6.30;;
68178;SDS011;54998;42.656;23.382;2023-04-24T08:25:16;9.57;;;6.30;;
68178;SDS011;54998;42.656;23.382;2023-04-24T08:27:44;11.25;;;5.95;;
68178;SDS011;54998;42.656;23.382;2023-04-24T08:30:20;8.82;;;5.70;;
68178;SDS011;54998;42.656;23.382;2023-04-24T08:32:46;10.80;;;5.78;;
68178;SDS011;54998;42.656;23.382;2023-04-24T08:35:11;7.15;;;5.95;;
68178;SDS011;54998;42.656;23.382;2023-04-24T08:37:37;9.75;;;6.32;;
68178;SDS011;54998;42.656;23.382;2023-04-24T08:40:05;11.55;;;7.22;;
68178;SDS011;54998;42.656;23.382;2023-04-24T08:42:35;7.40;;;5.53;;
68178;SDS011;54998;42.656;23.382;2023-04-24T08:45:02;16.30;;;5.82;;
68178;SDS011;54998;42.656;23.382;2023-04-24T08:49:53;9.38;;;6.22;;
68178;SDS011;54998;42.656;23.382;2023-04-24T08:52:20;8.02;;;5.45;;
68178;SDS011;54998;42.656;23.382;2023-04-24T08:54:47;8.40;;;5.53;;
68178;SDS011;54998;42.656;23.382;2023-04-24T08:57:15;8.43;;;5.97;;
68178;SDS011;54998;42.656;23.382;2023-04-24T08:59:41;10.52;;;5.93;;
68178;SDS011;54998;42.656;23.382;2023-04-24T09:02:10;8.82;;;5.55;;
68178;SDS011;54998;42.656;23.382;2023-04-24T09:04:36;7.35;;;5.28;;
68178;SDS011;54998;42.656;23.382;2023-04-24T09:07:02;8.25;;;5.63;;
68178;SDS011;54998;42.656;23.382;2023-04-24T09:09:30;9.48;;;5.88;;
68178;SDS011;54998;42.656;23.382;2023-04-24T09:28:38;7.50;;;5.50;;
68178;SDS011;54998;42.656;23.382;2023-04-24T09:31:14;6.53;;;5.22;;
68178;SDS011;54998;42.656;23.382;2023-04-24T09:33:56;8.93;;;5.47;;
68178;SDS011;54998;42.656;23.382;2023-04-24T09:36:34;5.75;;;4.65;;
68178;SDS011;54998;42.656;23.382;2023-04-24T09:39:03;7.10;;;4.90;;
68178;SDS011;54998;42.656;23.382;2023-04-24T09:41:31;7.85;;;5.30;;
68178;SDS011;54998;42.656;23.382;2023-04-24T09:44:10;7.50;;;5.35;;
68178;SDS011;54998;42.656;23.382;2023-04-24T09:46:43;7.47;;;5.28;;
68178;SDS011;54998;42.656;23.382;2023-04-24T09:49:15;7.53;;;5.25;;
68178;SDS011;54998;42.656;23.382;2023-04-24T09:54:35;7.95;;;5.30;;
68178;SDS011;54998;42.656;23.382;2023-04-24T09:57:04;6.47;;;5.13;;
68178;SDS011;54998;42.656;23.382;2023-04-24T09:59:45;9.38;;;5.53;;
68178;SDS011;54998;42.656;23.382;2023-04-24T10:02:17;8.93;;;5.22;;
68178;SDS011;54998;42.656;23.382;2023-04-24T10:04:53;8.18;;;4.93;;
68178;SDS011;54998;42.656;23.382;2023-04-24T10:07:29;9.63;;;6.10;;
68178;SDS011;54998;42.656;23.382;2023-04-24T10:10:07;8.48;;;5.30;;
68178;SDS011;54998;42.656;23.382;2023-04-24T10:12:36;7.93;;;4.93;;
68178;SDS011;54998;42.656;23.382;2023-04-24T10:17:31;7.63;;;5.78;;
68178;SDS011;54998;42.656;23.382;2023-04-24T10:19:57;8.32;;;5.45;;
68178;SDS011;54998;42.656;23.382;2023-04-24T10:22:26;7.55;;;5.00;;
68178;SDS011;54998;42.656;23.382;2023-04-24T10:24:54;7.90;;;5.72;;
68178;SDS011;54998;42.656;23.382;2023-04-24T10:27:22;9.38;;;5.05;;
68178;SDS011;54998;42.656;23.382;2023-04-24T10:29:48;7.22;;;5.43;;
68178;SDS011;54998;42.656;23.382;2023-04-24T10:32:16;9.82;;;5.47;;
68178;SDS011;54998;42.656;23.382;2023-04-24T10:35:17;7.20;;;5.32;;
68178;SDS011;54998;42.656;23.382;2023-04-24T10:37:57;7.72;;;5.13;;
68178;SDS011;54998;42.656;23.382;2023-04-24T10:40:27;6.72;;;5.00;;
68178;SDS011;54998;42.656;23.382;2023-04-24T10:42:56;7.60;;;5.63;;
68178;SDS011;54998;42.656;23.382;2023-04-24T10:45:24;8.85;;;6.30;;
68178;SDS011;54998;42.656;23.382;2023-04-24T10:48:08;8.68;;;5.90;;
68178;SDS011;54998;42.656;23.382;2023-04-24T10:50:42;7.05;;;6.35;;
68178;SDS011;54998;42.656;23.382;2023-04-24T10:53:15;7.40;;;6.35;;
68178;SDS011;54998;42.656;23.382;2023-04-24T10:55:43;7.60;;;5.63;;
68178;SDS011;54998;42.656;23.382;2023-04-24T10:58:14;7.00;;;6.05;;
68178;SDS011;54998;42.656;23.382;2023-04-24T11:00:41;6.18;;;4.70;;
68178;SDS011;54998;42.656;23.382;2023-04-24T11:03:28;6.50;;;4.90;;
68178;SDS011;54998;42.656;23.382;2023-04-24T11:06:00;4.97;;;4.00;;
68178;SDS011;54998;42.656;23.382;2023-04-24T11:08:31;5.63;;;4.32;;
68178;SDS011;54998;42.656;23.382;2023-04-24T11:11:13;5.32;;;4.38;;
68178;SDS011;54998;42.656;23.382;2023-04-24T11:19:02;5.05;;;4.00;;
68178;SDS011;54998;42.656;23.382;2023-04-24T11:29:43;12.00;;;4.43;;
68178;SDS011;54998;42.656;23.382;2023-04-24T11:34:44;23.77;;;4.43;;
68178;SDS011;54998;42.656;23.382;2023-04-24T11:37:11;9.00;;;3.85;;
68178;SDS011;54998;42.656;23.382;2023-04-24T11:39:37;7.88;;;4.28;;
68178;SDS011;54998;42.656;23.382;2023-04-24T11:42:03;5.88;;;3.05;;
68178;SDS011;54998;42.656;23.382;2023-04-24T11:44:31;5.72;;;3.53;;
68178;SDS011;54998;42.656;23.382;2023-04-24T11:46:58;6.35;;;3.78;;
68178;SDS011;54998;42.656;23.382;2023-04-24T11:49:24;9.23;;;3.92;;
68178;SDS011;54998;42.656;23.382;2023-04-24T11:51:49;5.40;;;3.67;;
68178;SDS011;54998;42.656;23.382;2023-04-24T11:54:14;6.88;;;3.72;;
68178;SDS011;54998;42.656;23.382;2023-04-24T11:56:44;5.10;;;3.88;;
68178;SDS011;54998;42.656;23.382;2023-04-24T11:59:11;6.97;;;3.88;;
68178;SDS011;54998;42.656;23.382;2023-04-24T12:01:46;6.90;;;4.40;;
68178;SDS011;54998;42.656;23.382;2023-04-24T12:04:12;6.57;;;4.25;;
68178;SDS011;54998;42.656;23.382;2023-04-24T12:06:38;6.97;;;3.75;;
68178;SDS011;54998;42.656;23.382;2023-04-24T12:09:03;5.47;;;3.72;;
68178;SDS011;54998;42.656;23.382;2023-04-24T12:11:29;4.43;;;3.38;;
68178;SDS011;54998;42.656;23.382;2023-04-24T12:13:55;5.57;;;3.47;;
68178;SDS011;54998;42.656;23.382;2023-04-24T12:16:21;5.47;;;3.85;;
68178;SDS011;54998;42.656;23.382;2023-04-24T12:18:46;5.25;;;3.72;;
68178;SDS011;54998;42.656;23.382;2023-04-24T12:21:16;5.65;;;3.78;;
68178;SDS011;54998;42.656;23.382;2023-04-24T12:23:45;6.25;;;4.28;;
68178;SDS011;54998;42.656;23.382;2023-04-24T12:26:11;5.13;;;3.70;;
68178;SDS011;54998;42.656;23.382;2023-04-24T12:28:38;5.32;;;3.63;;
68178;SDS011;54998;42.656;23.382;2023-04-24T12:33:34;4.13;;;3.08;;
68178;SDS011;54998;42.656;23.382;2023-04-24T12:36:00;5.93;;;3.53;;
68178;SDS011;54998;42.656;23.382;2023-04-24T12:38:27;5.30;;;3.50;;
68178;SDS011;54998;42.656;23.382;2023-04-24T12:41:05;5.25;;;3.88;;
68178;SDS011;54998;42.656;23.382;2023-04-24T12:43:32;7.35;;;3.80;;
68178;SDS011;54998;42.656;23.382;2023-04-24T12:45:57;3.78;;;3.00;;
68178;SDS011;54998;42.656;23.382;2023-04-24T12:50:50;4.90;;;3.35;;
68178;SDS011;54998;42.656;23.382;2023-04-24T12:53:15;5.28;;;3.60;;
68178;SDS011;54998;42.656;23.382;2023-04-24T12:55:41;4.78;;;3.45;;
68178;SDS011;54998;42.656;23.382;2023-04-24T12:58:06;5.28;;;3.33;;
68178;SDS011;54998;42.656;23.382;2023-04-24T13:00:32;5.78;;;3.60;;
68178;SDS011;54998;42.656;23.382;2023-04-24T13:03:01;4.95;;;3.42;;
68178;SDS011;54998;42.656;23.382;2023-04-24T13:05:27;6.40;;;3.47;;
68178;SDS011;54998;42.656;23.382;2023-04-24T13:07:52;6.00;;;3.67;;
68178;SDS011;54998;42.656;23.382;2023-04-24T13:10:18;7.13;;;3.80;;
68178;SDS011;54998;42.656;23.382;2023-04-24T13:12:44;5.78;;;3.35;;
68178;SDS011;54998;42.656;23.382;2023-04-24T13:15:11;3.88;;;3.17;;
68178;SDS011;54998;42.656;23.382;2023-04-24T13:17:37;5.85;;;3.58;;
68178;SDS011;54998;42.656;23.382;2023-04-24T13:20:02;6.07;;;3.92;;
68178;SDS011;54998;42.656;23.382;2023-04-24T13:22:28;5.43;;;3.72;;
68178;SDS011;54998;42.656;23.382;2023-04-24T13:24:53;7.20;;;3.60;;
68178;SDS011;54998;42.656;23.382;2023-04-24T13:27:19;4.90;;;3.90;;
68178;SDS011;54998;42.656;23.382;2023-04-24T13:29:45;4.35;;;3.63;;
68178;SDS011;54998;42.656;23.382;2023-04-24T13:32:11;6.70;;;3.85;;
68178;SDS011;54998;42.656;23.382;2023-04-24T13:34:36;6.13;;;3.72;;
68178;SDS011;54998;42.656;23.382;2023-04-24T13:37:02;6.35;;;3.78;;
68178;SDS011;54998;42.656;23.382;2023-04-24T13:39:31;5.15;;;3.63;;
68178;SDS011;54998;42.656;23.382;2023-04-24T13:41:58;5.88;;;3.90;;
68178;SDS011;54998;42.656;23.382;2023-04-24T13:44:23;7.63;;;4.43;;
68178;SDS011;54998;42.656;23.382;2023-04-24T13:46:50;7.03;;;3.92;;
68178;SDS011;54998;42.656;23.382;2023-04-24T13:49:19;5.75;;;3.97;;
68178;SDS011;54998;42.656;23.382;2023-04-24T13:51:46;5.95;;;4.45;;
68178;SDS011;54998;42.656;23.382;2023-04-24T13:54:12;7.38;;;4.63;;
68178;SDS011;54998;42.656;23.382;2023-04-24T13:56:38;8.85;;;5.05;;
68178;SDS011;54998;42.656;23.382;2023-04-24T13:59:07;4.97;;;3.83;;
68178;SDS011;54998;42.656;23.382;2023-04-24T14:01:33;7.07;;;4.45;;
68178;SDS011;54998;42.656;23.382;2023-04-24T14:03:58;7.70;;;5.38;;
68178;SDS011;54998;42.656;23.382;2023-04-24T14:06:24;6.28;;;4.43;;
68178;SDS011;54998;42.656;23.382;2023-04-24T14:08:50;6.85;;;4.15;;
68178;SDS011;54998;42.656;23.382;2023-04-24T14:11:16;9.45;;;4.50;;
68178;SDS011;54998;42.656;23.382;2023-04-24T14:13:42;5.50;;;3.72;;
68178;SDS011;54998;42.656;23.382;2023-04-24T14:16:08;5.30;;;3.58;;
68178;SDS011;54998;42.656;23.382;2023-04-24T14:18:35;7.25;;;4.47;;
68178;SDS011;54998;42.656;23.382;2023-04-24T14:21:04;5.00;;;3.55;;
68178;SDS011;54998;42.656;23.382;2023-04-24T14:23:32;3.47;;;2.08;;
68178;SDS011;54998;42.656;23.382;2023-04-24T14:25:58;3.13;;;2.63;;
68178;SDS011;54998;42.656;23.382;2023-04-24T14:28:24;4.47;;;2.70;;
68178;SDS011;54998;42.656;23.382;2023-04-24T14:30:51;6.30;;;3.65;;
68178;SDS011;54998;42.656;23.382;2023-04-24T14:33:17;5.75;;;2.83;;
68178;SDS011;54998;42.656;23.382;2023-04-24T14:35:42;4.93;;;3.10;;
68178;SDS011;54998;42.656;23.382;2023-04-24T14:38:08;7.50;;;3.72;;
68178;SDS011;54998;42.656;23.382;2023-04-24T14:40:34;4.00;;;2.97;;
68178;SDS011;54998;42.656;23.382;2023-04-24T14:43:00;5.32;;;3.17;;
68178;SDS011;54998;42.656;23.382;2023-04-24T14:45:26;8.70;;;4.07;;
68178;SDS011;54998;42.656;23.382;2023-04-24T14:47:52;3.40;;;2.40;;
68178;SDS011;54998;42.656;23.382;2023-04-24T14:50:17;4.85;;;3.40;;
68178;SDS011;54998;42.656;23.382;2023-04-24T14:52:43;4.30;;;2.90;;
68178;SDS011;54998;42.656;23.382;2023-04-24T14:55:09;4.63;;;3.33;;
68178;SDS011;54998;42.656;23.382;2023-04-24T14:57:34;5.40;;;4.00;;
68178;SDS011;54998;42.656;23.382;2023-04-24T15:00:01;5.53;;;3.50;;
68178;SDS011;54998;42.656;23.382;2023-04-24T15:02:32;8.20;;;4.50;;
68178;SDS011;54998;42.656;23.382;2023-04-24T15:04:58;6.18;;;4.38;;
68178;SDS011;54998;42.656;23.382;2023-04-24T15:07:23;6.47;;;4.05;;
68178;SDS011;54998;42.656;23.382;2023-04-24T15:09:49;6.20;;;4.47;;
68178;SDS011;54998;42.656;23.382;2023-04-24T15:12:14;7.50;;;4.32;;
68178;SDS011;54998;42.656;23.382;2023-04-24T15:14:40;6.80;;;4.32;;
68178;SDS011;54998;42.656;23.382;2023-04-24T15:17:05;7.07;;;4.43;;
68178;SDS011;54998;42.656;23.382;2023-04-24T15:19:31;8.02;;;4.82;;
68178;SDS011;54998;42.656;23.382;2023-04-24T15:21:56;8.48;;;4.45;;
68178;SDS011;54998;42.656;23.382;2023-04-24T15:24:22;10.63;;;4.65;;